sensor_id;sensor_type;location;lat;lon;timestamp;P1;durP1;ratioP1;P2;durP2;ratioP2
53064;SDS011;38948;48.376;-4.312;2022-12-16T00:01:06;3.08;;;0.65;;
53064;SDS011;38948;48.376;-4.312;2022-12-16T00:03:33;1.00;;;0.50;;
53064;SDS011;38948;48.376;-4.312;2022-12-16T00:06:03;1.90;;;0.50;;
53064;SDS011;38948;48.376;-4.312;2022-12-16T00:08:33;1.50;;;0.43;;
53064;SDS011;38948;48.376;-4.312;2022-12-16T00:11:00;0.70;;;0.60;;
53064;SDS011;38948;48.376;-4.312;2022-12-16T00:13:27;0.50;;;0.38;;
53064;SDS011;38948;48.376;-4.312;2022-12-16T00:15:54;1.88;;;0.57;;
53064;SDS011;38948;48.376;-4.312;2022-12-16T00:18:20;1.13;;;0.60;;
53064;SDS011;38948;48.376;-4.312;2022-12-16T00:20:47;1.75;;;0.65;;
53064;SDS011;38948;48.376;-4.312;2022-12-16T00:23:14;1.55;;;0.57;;
53064;SDS011;38948;48.376;-4.312;2022-12-16T00:25:44;0.30;;;0.25;;
53064;SDS011;38948;48.376;-4.312;2022-12-16T00:28:11;0.95;;;0.40;;
53064;SDS011;38948;48.376;-4.312;2022-12-16T00:30:37;0.95;;;0.60;;
53064;SDS011;38948;48.376;-4.312;2022-12-16T00:33:04;1.38;;;0.52;;
53064;SDS011;38948;48.376;-4.312;2022-12-16T00:35:30;1.67;;;0.68;;
53064;SDS011;38948;48.376;-4.312;2022-12-16T00:37:55;1.45;;;0.40;;
53064;SDS011;38948;48.376;-4.312;2022-12-16T00:40:22;2.45;;;0.85;;
53064;SDS011;38948;48.376;-4.312;2022-12-16T00:42:48;0.68;;;0.52;;
53064;SDS011;38948;48.376;-4.312;2022-12-16T00:45:14;1.67;;;0.60;;
53064;SDS011;38948;48.376;-4.312;2022-12-16T00:47:39;0.75;;;0.40;;
53064;SDS011;38948;48.376;-4.312;2022-12-16T00:50:05;1.27;;;0.50;;
53064;SDS011;38948;48.376;-4.312;2022-12-16T00:52:32;0.88;;;0.45;;
53064;SDS011;38948;48.376;-4.312;2022-12-16T00:54:57;0.55;;;0.32;;
53064;SDS011;38948;48.376;-4.312;2022-12-16T00:57:24;1.40;;;0.55;;
53064;SDS011;38948;48.376;-4.312;2022-12-16T00:59:50;2.55;;;0.40;;
53064;SDS011;38948;48.376;-4.312;2022-12-16T01:02:16;0.65;;;0.20;;
53064;SDS011;38948;48.376;-4.312;2022-12-16T01:04:42;0.52;;;0.30;;
53064;SDS011;38948;48.376;-4.312;2022-12-16T01:07:08;1.05;;;0.40;;
53064;SDS011;38948;48.376;-4.312;2022-12-16T01:09:34;1.45;;;0.50;;
53064;SDS011;38948;48.376;-4.312;2022-12-16T01:12:00;0.22;;;0.22;;
53064;SDS011;38948;48.376;-4.312;2022-12-16T01:14:26;1.10;;;0.40;;
53064;SDS011;38948;48.376;-4.312;2022-12-16T01:16:52;1.17;;;0.43;;
53064;SDS011;38948;48.376;-4.312;2022-12-16T01:19:17;0.80;;;0.40;;
53064;SDS011;38948;48.376;-4.312;2022-12-16T01:21:44;0.30;;;0.30;;
53064;SDS011;38948;48.376;-4.312;2022-12-16T01:24:11;0.85;;;0.50;;
53064;SDS011;38948;48.376;-4.312;2022-12-16T01:26:37;0.60;;;0.50;;
53064;SDS011;38948;48.376;-4.312;2022-12-16T01:29:03;1.00;;;0.45;;
53064;SDS011;38948;48.376;-4.312;2022-12-16T01:31:29;0.40;;;0.40;;
53064;SDS011;38948;48.376;-4.312;2022-12-16T01:33:55;0.65;;;0.32;;
53064;SDS011;38948;48.376;-4.312;2022-12-16T01:36:21;0.77;;;0.30;;
53064;SDS011;38948;48.376;-4.312;2022-12-16T01:38:48;0.80;;;0.35;;
53064;SDS011;38948;48.376;-4.312;2022-12-16T01:41:14;0.68;;;0.30;;
53064;SDS011;38948;48.376;-4.312;2022-12-16T01:43:41;0.63;;;0.32;;
53064;SDS011;38948;48.376;-4.312;2022-12-16T01:46:12;1.23;;;0.45;;
53064;SDS011;38948;48.376;-4.312;2022-12-16T01:48:58;0.43;;;0.30;;
53064;SDS011;38948;48.376;-4.312;2022-12-16T01:54:04;0.95;;;0.28;;
53064;SDS011;38948;48.376;-4.312;2022-12-16T01:56:36;0.95;;;0.60;;
53064;SDS011;38948;48.376;-4.312;2022-12-16T01:59:07;0.98;;;0.30;;
53064;SDS011;38948;48.376;-4.312;2022-12-16T02:01:35;0.63;;;0.40;;
53064;SDS011;38948;48.376;-4.312;2022-12-16T02:04:01;0.68;;;0.38;;
53064;SDS011;38948;48.376;-4.312;2022-12-16T02:06:31;1.42;;;0.70;;
53064;SDS011;38948;48.376;-4.312;2022-12-16T02:08:58;0.73;;;0.40;;
53064;SDS011;38948;48.376;-4.312;2022-12-16T02:20:04;1.15;;;0.22;;
53064;SDS011;38948;48.376;-4.312;2022-12-16T02:23:15;0.55;;;0.30;;
53064;SDS011;38948;48.376;-4.312;2022-12-16T02:29:00;0.40;;;0.30;;
53064;SDS011;38948;48.376;-4.312;2022-12-16T02:31:42;1.15;;;0.60;;
53064;SDS011;38948;48.376;-4.312;2022-12-16T02:40:12;0.45;;;0.35;;
53064;SDS011;38948;48.376;-4.312;2022-12-16T02:42:49;1.77;;;0.50;;
53064;SDS011;38948;48.376;-4.312;2022-12-16T02:45:20;0.22;;;0.20;;
53064;SDS011;38948;48.376;-4.312;2022-12-16T02:47:51;2.08;;;0.40;;
53064;SDS011;38948;48.376;-4.312;2022-12-16T02:50:19;0.88;;;0.40;;
53064;SDS011;38948;48.376;-4.312;2022-12-16T02:52:46;1.52;;;0.40;;
53064;SDS011;38948;48.376;-4.312;2022-12-16T02:55:14;1.55;;;0.38;;
53064;SDS011;38948;48.376;-4.312;2022-12-16T03:00:48;0.85;;;0.40;;
53064;SDS011;38948;48.376;-4.312;2022-12-16T03:03:56;0.88;;;0.35;;
53064;SDS011;38948;48.376;-4.312;2022-12-16T03:06:32;0.98;;;0.32;;
53064;SDS011;38948;48.376;-4.312;2022-12-16T03:09:01;0.82;;;0.52;;
53064;SDS011;38948;48.376;-4.312;2022-12-16T03:11:30;0.45;;;0.20;;
53064;SDS011;38948;48.376;-4.312;2022-12-16T03:13:57;0.73;;;0.30;;
53064;SDS011;38948;48.376;-4.312;2022-12-16T03:16:26;1.27;;;0.50;;
53064;SDS011;38948;48.376;-4.312;2022-12-16T03:18:58;1.25;;;0.47;;
53064;SDS011;38948;48.376;-4.312;2022-12-16T03:21:35;0.32;;;0.20;;
53064;SDS011;38948;48.376;-4.312;2022-12-16T03:24:30;0.38;;;0.20;;
53064;SDS011;38948;48.376;-4.312;2022-12-16T03:29:55;0.55;;;0.30;;
53064;SDS011;38948;48.376;-4.312;2022-12-16T03:35:29;0.98;;;0.50;;
53064;SDS011;38948;48.376;-4.312;2022-12-16T03:38:02;0.93;;;0.20;;
53064;SDS011;38948;48.376;-4.312;2022-12-16T03:40:31;1.02;;;0.40;;
53064;SDS011;38948;48.376;-4.312;2022-12-16T03:42:58;0.75;;;0.38;;
53064;SDS011;38948;48.376;-4.312;2022-12-16T03:45:31;1.65;;;0.32;;
53064;SDS011;38948;48.376;-4.312;2022-12-16T03:48:01;0.68;;;0.30;;
53064;SDS011;38948;48.376;-4.312;2022-12-16T03:50:28;0.70;;;0.40;;
53064;SDS011;38948;48.376;-4.312;2022-12-16T03:52:56;1.10;;;0.17;;
53064;SDS011;38948;48.376;-4.312;2022-12-16T03:55:23;0.55;;;0.40;;
53064;SDS011;38948;48.376;-4.312;2022-12-16T03:57:48;1.98;;;0.20;;
53064;SDS011;38948;48.376;-4.312;2022-12-16T04:00:14;0.30;;;0.17;;
53064;SDS011;38948;48.376;-4.312;2022-12-16T04:02:40;1.45;;;0.40;;
53064;SDS011;38948;48.376;-4.312;2022-12-16T04:05:07;0.10;;;0.10;;
53064;SDS011;38948;48.376;-4.312;2022-12-16T04:07:33;0.52;;;0.30;;
53064;SDS011;38948;48.376;-4.312;2022-12-16T04:09:59;1.45;;;0.50;;
53064;SDS011;38948;48.376;-4.312;2022-12-16T04:12:25;0.82;;;0.43;;
53064;SDS011;38948;48.376;-4.312;2022-12-16T04:15:09;0.38;;;0.22;;
53064;SDS011;38948;48.376;-4.312;2022-12-16T04:17:54;1.25;;;0.47;;
53064;SDS011;38948;48.376;-4.312;2022-12-16T04:20:41;0.17;;;0.17;;
53064;SDS011;38948;48.376;-4.312;2022-12-16T04:23:28;1.45;;;0.47;;
53064;SDS011;38948;48.376;-4.312;2022-12-16T04:26:14;1.08;;;0.50;;
53064;SDS011;38948;48.376;-4.312;2022-12-16T04:28:40;1.10;;;0.50;;
53064;SDS011;38948;48.376;-4.312;2022-12-16T04:31:06;0.25;;;0.20;;
53064;SDS011;38948;48.376;-4.312;2022-12-16T04:33:32;0.68;;;0.30;;
53064;SDS011;38948;48.376;-4.312;2022-12-16T04:36:17;1.00;;;0.40;;
53064;SDS011;38948;48.376;-4.312;2022-12-16T04:39:02;1.02;;;0.40;;
53064;SDS011;38948;48.376;-4.312;2022-12-16T04:44:35;0.65;;;0.30;;
53064;SDS011;38948;48.376;-4.312;2022-12-16T04:47:20;0.60;;;0.35;;
53064;SDS011;38948;48.376;-4.312;2022-12-16T04:50:04;2.13;;;1.05;;
53064;SDS011;38948;48.376;-4.312;2022-12-16T04:52:51;2.05;;;0.30;;
53064;SDS011;38948;48.376;-4.312;2022-12-16T04:55:36;0.10;;;0.10;;
53064;SDS011;38948;48.376;-4.312;2022-12-16T04:58:20;2.20;;;0.30;;
53064;SDS011;38948;48.376;-4.312;2022-12-16T05:01:05;0.57;;;0.32;;
53064;SDS011;38948;48.376;-4.312;2022-12-16T05:03:52;1.75;;;0.40;;
53064;SDS011;38948;48.376;-4.312;2022-12-16T05:06:36;0.50;;;0.32;;
53064;SDS011;38948;48.376;-4.312;2022-12-16T05:09:20;0.82;;;0.30;;
53064;SDS011;38948;48.376;-4.312;2022-12-16T05:12:05;0.55;;;0.30;;
53064;SDS011;38948;48.376;-4.312;2022-12-16T05:14:49;1.80;;;0.40;;
53064;SDS011;38948;48.376;-4.312;2022-12-16T05:17:33;0.60;;;0.30;;
53064;SDS011;38948;48.376;-4.312;2022-12-16T05:20:17;0.43;;;0.22;;
53064;SDS011;38948;48.376;-4.312;2022-12-16T05:23:01;1.13;;;0.35;;
53064;SDS011;38948;48.376;-4.312;2022-12-16T05:26:02;1.20;;;0.40;;
53064;SDS011;38948;48.376;-4.312;2022-12-16T05:28:46;0.93;;;0.40;;
53064;SDS011;38948;48.376;-4.312;2022-12-16T05:31:31;0.65;;;0.28;;
53064;SDS011;38948;48.376;-4.312;2022-12-16T05:34:18;0.20;;;0.20;;
53064;SDS011;38948;48.376;-4.312;2022-12-16T05:37:02;0.77;;;0.28;;
53064;SDS011;38948;48.376;-4.312;2022-12-16T05:39:46;0.63;;;0.40;;
53064;SDS011;38948;48.376;-4.312;2022-12-16T05:42:30;1.05;;;0.30;;
53064;SDS011;38948;48.376;-4.312;2022-12-16T05:45:14;1.10;;;0.40;;
53064;SDS011;38948;48.376;-4.312;2022-12-16T05:47:58;0.73;;;0.30;;
53064;SDS011;38948;48.376;-4.312;2022-12-16T05:50:42;0.80;;;0.43;;
53064;SDS011;38948;48.376;-4.312;2022-12-16T05:53:26;0.40;;;0.30;;
53064;SDS011;38948;48.376;-4.312;2022-12-16T05:56:14;0.47;;;0.22;;
53064;SDS011;38948;48.376;-4.312;2022-12-16T05:58:58;0.95;;;0.17;;
53064;SDS011;38948;48.376;-4.312;2022-12-16T06:01:42;0.95;;;0.47;;
53064;SDS011;38948;48.376;-4.312;2022-12-16T06:04:29;0.68;;;0.35;;
53064;SDS011;38948;48.376;-4.312;2022-12-16T06:07:13;0.88;;;0.40;;
53064;SDS011;38948;48.376;-4.312;2022-12-16T06:09:58;1.55;;;0.50;;
53064;SDS011;38948;48.376;-4.312;2022-12-16T06:12:44;0.32;;;0.10;;
53064;SDS011;38948;48.376;-4.312;2022-12-16T06:15:29;0.95;;;0.40;;
53064;SDS011;38948;48.376;-4.312;2022-12-16T06:18:14;2.05;;;0.60;;
53064;SDS011;38948;48.376;-4.312;2022-12-16T06:20:58;0.47;;;0.20;;
53064;SDS011;38948;48.376;-4.312;2022-12-16T06:23:42;0.90;;;0.40;;
53064;SDS011;38948;48.376;-4.312;2022-12-16T06:26:26;0.73;;;0.30;;
53064;SDS011;38948;48.376;-4.312;2022-12-16T06:29:10;1.38;;;0.50;;
53064;SDS011;38948;48.376;-4.312;2022-12-16T06:31:55;1.23;;;0.35;;
53064;SDS011;38948;48.376;-4.312;2022-12-16T06:34:38;0.55;;;0.40;;
53064;SDS011;38948;48.376;-4.312;2022-12-16T06:37:23;2.08;;;0.60;;
53064;SDS011;38948;48.376;-4.312;2022-12-16T06:40:07;1.00;;;0.40;;
53064;SDS011;38948;48.376;-4.312;2022-12-16T06:42:52;0.32;;;0.30;;
53064;SDS011;38948;48.376;-4.312;2022-12-16T06:45:36;0.63;;;0.40;;
53064;SDS011;38948;48.376;-4.312;2022-12-16T06:48:20;0.75;;;0.40;;
53064;SDS011;38948;48.376;-4.312;2022-12-16T06:51:04;1.38;;;0.43;;
53064;SDS011;38948;48.376;-4.312;2022-12-16T06:53:48;0.55;;;0.40;;
53064;SDS011;38948;48.376;-4.312;2022-12-16T06:56:32;1.70;;;0.45;;
53064;SDS011;38948;48.376;-4.312;2022-12-16T06:59:16;0.65;;;0.28;;
53064;SDS011;38948;48.376;-4.312;2022-12-16T07:02:00;0.77;;;0.50;;
53064;SDS011;38948;48.376;-4.312;2022-12-16T07:04:44;0.63;;;0.45;;
53064;SDS011;38948;48.376;-4.312;2022-12-16T07:07:28;2.58;;;0.70;;
53064;SDS011;38948;48.376;-4.312;2022-12-16T07:10:12;1.17;;;0.55;;
53064;SDS011;38948;48.376;-4.312;2022-12-16T07:12:58;1.48;;;0.40;;
53064;SDS011;38948;48.376;-4.312;2022-12-16T07:15:42;0.50;;;0.32;;
53064;SDS011;38948;48.376;-4.312;2022-12-16T07:21:12;0.70;;;0.40;;
53064;SDS011;38948;48.376;-4.312;2022-12-16T07:23:57;0.83;;;0.47;;
53064;SDS011;38948;48.376;-4.312;2022-12-16T07:26:41;1.63;;;0.65;;
53064;SDS011;38948;48.376;-4.312;2022-12-16T07:29:25;0.55;;;0.35;;
53064;SDS011;38948;48.376;-4.312;2022-12-16T07:32:09;0.50;;;0.40;;
53064;SDS011;38948;48.376;-4.312;2022-12-16T07:34:53;0.93;;;0.45;;
53064;SDS011;38948;48.376;-4.312;2022-12-16T07:37:38;1.00;;;0.50;;
53064;SDS011;38948;48.376;-4.312;2022-12-16T07:40:22;1.73;;;0.50;;
53064;SDS011;38948;48.376;-4.312;2022-12-16T07:43:06;3.70;;;0.50;;
53064;SDS011;38948;48.376;-4.312;2022-12-16T07:45:50;0.68;;;0.20;;
53064;SDS011;38948;48.376;-4.312;2022-12-16T07:48:34;1.02;;;0.60;;
53064;SDS011;38948;48.376;-4.312;2022-12-16T07:51:18;1.13;;;0.57;;
53064;SDS011;38948;48.376;-4.312;2022-12-16T07:54:02;0.73;;;0.40;;
53064;SDS011;38948;48.376;-4.312;2022-12-16T07:56:46;0.65;;;0.35;;
53064;SDS011;38948;48.376;-4.312;2022-12-16T07:59:30;3.22;;;0.90;;
53064;SDS011;38948;48.376;-4.312;2022-12-16T08:02:14;1.45;;;0.70;;
53064;SDS011;38948;48.376;-4.312;2022-12-16T08:04:59;0.43;;;0.30;;
53064;SDS011;38948;48.376;-4.312;2022-12-16T08:07:43;1.92;;;0.65;;
53064;SDS011;38948;48.376;-4.312;2022-12-16T08:10:27;1.40;;;0.55;;
53064;SDS011;38948;48.376;-4.312;2022-12-16T08:13:11;1.77;;;0.60;;
53064;SDS011;38948;48.376;-4.312;2022-12-16T08:15:55;3.20;;;0.80;;
53064;SDS011;38948;48.376;-4.312;2022-12-16T08:18:56;1.13;;;0.52;;
53064;SDS011;38948;48.376;-4.312;2022-12-16T08:21:40;1.27;;;0.55;;
53064;SDS011;38948;48.376;-4.312;2022-12-16T08:24:25;2.03;;;1.23;;
53064;SDS011;38948;48.376;-4.312;2022-12-16T08:27:09;1.17;;;0.60;;
53064;SDS011;38948;48.376;-4.312;2022-12-16T08:30:00;1.77;;;0.70;;
53064;SDS011;38948;48.376;-4.312;2022-12-16T08:32:45;1.58;;;0.88;;
53064;SDS011;38948;48.376;-4.312;2022-12-16T08:35:29;2.50;;;1.20;;
53064;SDS011;38948;48.376;-4.312;2022-12-16T08:38:13;0.90;;;0.52;;
53064;SDS011;38948;48.376;-4.312;2022-12-16T08:40:57;2.78;;;0.77;;
53064;SDS011;38948;48.376;-4.312;2022-12-16T08:43:41;1.30;;;0.60;;
53064;SDS011;38948;48.376;-4.312;2022-12-16T08:46:25;2.38;;;0.98;;
53064;SDS011;38948;48.376;-4.312;2022-12-16T08:49:09;2.30;;;0.68;;
53064;SDS011;38948;48.376;-4.312;2022-12-16T08:51:53;1.10;;;0.57;;
53064;SDS011;38948;48.376;-4.312;2022-12-16T08:54:37;1.42;;;0.75;;
53064;SDS011;38948;48.376;-4.312;2022-12-16T08:57:21;1.27;;;0.60;;
53064;SDS011;38948;48.376;-4.312;2022-12-16T09:00:06;1.08;;;0.57;;
53064;SDS011;38948;48.376;-4.312;2022-12-16T09:02:58;1.63;;;0.80;;
53064;SDS011;38948;48.376;-4.312;2022-12-16T09:05:42;1.20;;;0.70;;
53064;SDS011;38948;48.376;-4.312;2022-12-16T09:08:40;0.77;;;0.60;;
53064;SDS011;38948;48.376;-4.312;2022-12-16T09:11:25;1.25;;;0.80;;
53064;SDS011;38948;48.376;-4.312;2022-12-16T09:14:09;1.58;;;0.70;;
53064;SDS011;38948;48.376;-4.312;2022-12-16T09:16:53;1.17;;;0.63;;
53064;SDS011;38948;48.376;-4.312;2022-12-16T09:19:37;1.13;;;0.57;;
53064;SDS011;38948;48.376;-4.312;2022-12-16T09:22:21;0.98;;;0.80;;
53064;SDS011;38948;48.376;-4.312;2022-12-16T09:25:05;1.67;;;0.68;;
53064;SDS011;38948;48.376;-4.312;2022-12-16T09:27:49;0.60;;;0.50;;
53064;SDS011;38948;48.376;-4.312;2022-12-16T09:30:33;1.00;;;0.65;;
53064;SDS011;38948;48.376;-4.312;2022-12-16T09:33:17;1.63;;;0.80;;
53064;SDS011;38948;48.376;-4.312;2022-12-16T09:36:01;1.88;;;0.60;;
53064;SDS011;38948;48.376;-4.312;2022-12-16T09:38:45;1.38;;;0.60;;
53064;SDS011;38948;48.376;-4.312;2022-12-16T09:47:32;1.65;;;0.60;;
53064;SDS011;38948;48.376;-4.312;2022-12-16T09:50:24;2.10;;;1.05;;
53064;SDS011;38948;48.376;-4.312;2022-12-16T09:53:13;1.45;;;0.70;;
53064;SDS011;38948;48.376;-4.312;2022-12-16T09:56:04;1.17;;;0.50;;
53064;SDS011;38948;48.376;-4.312;2022-12-16T09:59:00;0.70;;;0.60;;
53064;SDS011;38948;48.376;-4.312;2022-12-16T10:01:48;1.73;;;0.50;;
53064;SDS011;38948;48.376;-4.312;2022-12-16T10:07:21;1.90;;;0.60;;
53064;SDS011;38948;48.376;-4.312;2022-12-16T10:10:10;0.73;;;0.52;;
53064;SDS011;38948;48.376;-4.312;2022-12-16T10:13:19;1.13;;;0.70;;
53064;SDS011;38948;48.376;-4.312;2022-12-16T10:22:29;1.27;;;0.70;;
53064;SDS011;38948;48.376;-4.312;2022-12-16T10:31:30;1.30;;;0.68;;
53064;SDS011;38948;48.376;-4.312;2022-12-16T10:34:34;1.08;;;0.90;;
53064;SDS011;38948;48.376;-4.312;2022-12-16T10:37:33;2.70;;;0.70;;
53064;SDS011;38948;48.376;-4.312;2022-12-16T10:40:23;2.72;;;0.63;;
53064;SDS011;38948;48.376;-4.312;2022-12-16T10:43:15;1.10;;;0.77;;
53064;SDS011;38948;48.376;-4.312;2022-12-16T10:46:05;1.02;;;0.57;;
53064;SDS011;38948;48.376;-4.312;2022-12-16T10:48:56;2.03;;;1.02;;
53064;SDS011;38948;48.376;-4.312;2022-12-16T10:51:40;2.72;;;0.90;;
53064;SDS011;38948;48.376;-4.312;2022-12-16T10:54:27;2.40;;;0.70;;
53064;SDS011;38948;48.376;-4.312;2022-12-16T11:00:19;1.83;;;0.77;;
53064;SDS011;38948;48.376;-4.312;2022-12-16T11:03:22;2.03;;;0.52;;
53064;SDS011;38948;48.376;-4.312;2022-12-16T11:06:09;1.08;;;0.60;;
53064;SDS011;38948;48.376;-4.312;2022-12-16T11:12:15;3.03;;;0.73;;
53064;SDS011;38948;48.376;-4.312;2022-12-16T11:15:50;2.20;;;1.23;;
53064;SDS011;38948;48.376;-4.312;2022-12-16T11:18:15;1.17;;;0.65;;
53064;SDS011;38948;48.376;-4.312;2022-12-16T11:24:10;1.95;;;0.90;;
53064;SDS011;38948;48.376;-4.312;2022-12-16T11:27:43;3.03;;;0.88;;
53064;SDS011;38948;48.376;-4.312;2022-12-16T11:30:03;2.17;;;0.85;;
53064;SDS011;38948;48.376;-4.312;2022-12-16T11:32:59;1.85;;;0.70;;
53064;SDS011;38948;48.376;-4.312;2022-12-16T11:36:04;1.65;;;0.65;;
53064;SDS011;38948;48.376;-4.312;2022-12-16T11:38:53;2.17;;;0.73;;
53064;SDS011;38948;48.376;-4.312;2022-12-16T11:45:00;1.48;;;0.55;;
53064;SDS011;38948;48.376;-4.312;2022-12-16T11:48:02;0.82;;;0.65;;
53064;SDS011;38948;48.376;-4.312;2022-12-16T11:51:02;0.95;;;0.55;;
53064;SDS011;38948;48.376;-4.312;2022-12-16T11:53:49;1.73;;;0.60;;
53064;SDS011;38948;48.376;-4.312;2022-12-16T11:56:55;0.57;;;0.50;;
53064;SDS011;38948;48.376;-4.312;2022-12-16T11:59:44;0.90;;;0.30;;
53064;SDS011;38948;48.376;-4.312;2022-12-16T12:02:46;1.17;;;0.60;;
53064;SDS011;38948;48.376;-4.312;2022-12-16T12:05:49;2.15;;;0.63;;
53064;SDS011;38948;48.376;-4.312;2022-12-16T12:12:10;0.82;;;0.60;;
53064;SDS011;38948;48.376;-4.312;2022-12-16T12:24:03;2.45;;;0.70;;
53064;SDS011;38948;48.376;-4.312;2022-12-16T12:36:24;2.35;;;0.88;;
53064;SDS011;38948;48.376;-4.312;2022-12-16T12:39:23;1.20;;;0.60;;
53064;SDS011;38948;48.376;-4.312;2022-12-16T12:42:30;1.67;;;0.52;;
53064;SDS011;38948;48.376;-4.312;2022-12-16T12:48:47;1.15;;;0.50;;
53064;SDS011;38948;48.376;-4.312;2022-12-16T12:58:03;1.25;;;0.50;;
53064;SDS011;38948;48.376;-4.312;2022-12-16T13:00:49;0.52;;;0.20;;
53064;SDS011;38948;48.376;-4.312;2022-12-16T13:03:37;0.65;;;0.43;;
53064;SDS011;38948;48.376;-4.312;2022-12-16T13:06:29;1.40;;;0.45;;
53064;SDS011;38948;48.376;-4.312;2022-12-16T13:10:01;0.52;;;0.40;;
53064;SDS011;38948;48.376;-4.312;2022-12-16T13:15:18;0.80;;;0.50;;
53064;SDS011;38948;48.376;-4.312;2022-12-16T13:18:19;0.50;;;0.30;;
53064;SDS011;38948;48.376;-4.312;2022-12-16T13:24:37;0.55;;;0.43;;
53064;SDS011;38948;48.376;-4.312;2022-12-16T13:27:24;0.90;;;0.57;;
53064;SDS011;38948;48.376;-4.312;2022-12-16T13:32:55;1.15;;;0.57;;
53064;SDS011;38948;48.376;-4.312;2022-12-16T13:35:53;0.90;;;0.70;;
53064;SDS011;38948;48.376;-4.312;2022-12-16T13:38:50;1.13;;;0.60;;
53064;SDS011;38948;48.376;-4.312;2022-12-16T13:41:47;0.65;;;0.38;;
53064;SDS011;38948;48.376;-4.312;2022-12-16T13:50:36;2.60;;;0.60;;
53064;SDS011;38948;48.376;-4.312;2022-12-16T13:53:30;1.55;;;0.60;;
53064;SDS011;38948;48.376;-4.312;2022-12-16T13:56:18;1.08;;;0.50;;
53064;SDS011;38948;48.376;-4.312;2022-12-16T13:59:19;1.55;;;0.60;;
53064;SDS011;38948;48.376;-4.312;2022-12-16T14:02:13;1.13;;;0.57;;
53064;SDS011;38948;48.376;-4.312;2022-12-16T14:05:22;1.20;;;0.60;;
53064;SDS011;38948;48.376;-4.312;2022-12-16T14:08:16;0.45;;;0.35;;
53064;SDS011;38948;48.376;-4.312;2022-12-16T14:11:04;1.05;;;0.40;;
53064;SDS011;38948;48.376;-4.312;2022-12-16T14:17:05;1.45;;;0.68;;
53064;SDS011;38948;48.376;-4.312;2022-12-16T14:20:02;0.90;;;0.38;;
53064;SDS011;38948;48.376;-4.312;2022-12-16T14:26:00;1.75;;;0.60;;
53064;SDS011;38948;48.376;-4.312;2022-12-16T14:28:45;2.13;;;0.55;;
53064;SDS011;38948;48.376;-4.312;2022-12-16T14:31:37;1.85;;;0.70;;
53064;SDS011;38948;48.376;-4.312;2022-12-16T14:34:30;0.45;;;0.40;;
53064;SDS011;38948;48.376;-4.312;2022-12-16T14:37:21;0.82;;;0.43;;
53064;SDS011;38948;48.376;-4.312;2022-12-16T14:40:21;0.32;;;0.32;;
53064;SDS011;38948;48.376;-4.312;2022-12-16T14:43:11;1.23;;;0.57;;
53064;SDS011;38948;48.376;-4.312;2022-12-16T14:45:57;0.80;;;0.35;;
53064;SDS011;38948;48.376;-4.312;2022-12-16T14:48:43;1.80;;;0.50;;
53064;SDS011;38948;48.376;-4.312;2022-12-16T14:51:35;1.02;;;0.50;;
53064;SDS011;38948;48.376;-4.312;2022-12-16T14:54:34;0.80;;;0.60;;
53064;SDS011;38948;48.376;-4.312;2022-12-16T14:57:24;0.82;;;0.32;;
53064;SDS011;38948;48.376;-4.312;2022-12-16T15:00:11;1.15;;;0.35;;
53064;SDS011;38948;48.376;-4.312;2022-12-16T15:03:39;0.45;;;0.40;;
53064;SDS011;38948;48.376;-4.312;2022-12-16T15:06:05;0.93;;;0.50;;
53064;SDS011;38948;48.376;-4.312;2022-12-16T15:08:55;0.30;;;0.30;;
53064;SDS011;38948;48.376;-4.312;2022-12-16T15:11:44;2.83;;;0.70;;
53064;SDS011;38948;48.376;-4.312;2022-12-16T15:14:31;0.63;;;0.50;;
53064;SDS011;38948;48.376;-4.312;2022-12-16T15:17:28;1.33;;;0.57;;
53064;SDS011;38948;48.376;-4.312;2022-12-16T15:20:20;1.48;;;0.50;;
53064;SDS011;38948;48.376;-4.312;2022-12-16T15:26:04;0.55;;;0.30;;
53064;SDS011;38948;48.376;-4.312;2022-12-16T15:28:49;2.72;;;0.70;;
53064;SDS011;38948;48.376;-4.312;2022-12-16T15:31:35;1.17;;;0.55;;
53064;SDS011;38948;48.376;-4.312;2022-12-16T15:34:27;1.30;;;0.50;;
53064;SDS011;38948;48.376;-4.312;2022-12-16T15:37:29;2.10;;;0.60;;
53064;SDS011;38948;48.376;-4.312;2022-12-16T15:43:02;1.15;;;0.40;;
53064;SDS011;38948;48.376;-4.312;2022-12-16T15:46:15;3.20;;;0.63;;
53064;SDS011;38948;48.376;-4.312;2022-12-16T15:49:00;1.08;;;0.57;;
53064;SDS011;38948;48.376;-4.312;2022-12-16T15:51:45;1.30;;;0.55;;
53064;SDS011;38948;48.376;-4.312;2022-12-16T15:54:31;0.85;;;0.50;;
53064;SDS011;38948;48.376;-4.312;2022-12-16T16:00:39;0.68;;;0.50;;
53064;SDS011;38948;48.376;-4.312;2022-12-16T16:03:24;1.08;;;0.60;;
53064;SDS011;38948;48.376;-4.312;2022-12-16T16:06:14;0.82;;;0.60;;
53064;SDS011;38948;48.376;-4.312;2022-12-16T16:09:20;0.95;;;0.60;;
53064;SDS011;38948;48.376;-4.312;2022-12-16T16:12:10;1.73;;;0.70;;
53064;SDS011;38948;48.376;-4.312;2022-12-16T16:14:55;1.63;;;0.70;;
53064;SDS011;38948;48.376;-4.312;2022-12-16T16:17:39;4.93;;;0.88;;
53064;SDS011;38948;48.376;-4.312;2022-12-16T16:20:24;1.00;;;0.65;;
53064;SDS011;38948;48.376;-4.312;2022-12-16T16:23:08;1.95;;;0.85;;
53064;SDS011;38948;48.376;-4.312;2022-12-16T16:25:53;1.10;;;1.00;;
53064;SDS011;38948;48.376;-4.312;2022-12-16T16:28:37;2.08;;;1.08;;
53064;SDS011;38948;48.376;-4.312;2022-12-16T16:31:21;2.65;;;1.00;;
53064;SDS011;38948;48.376;-4.312;2022-12-16T16:34:05;2.47;;;1.25;;
53064;SDS011;38948;48.376;-4.312;2022-12-16T16:36:54;2.17;;;0.98;;
53064;SDS011;38948;48.376;-4.312;2022-12-16T16:39:40;2.55;;;1.17;;
53064;SDS011;38948;48.376;-4.312;2022-12-16T16:42:24;2.97;;;1.00;;
53064;SDS011;38948;48.376;-4.312;2022-12-16T16:45:09;2.08;;;1.15;;
53064;SDS011;38948;48.376;-4.312;2022-12-16T16:47:55;2.58;;;1.13;;
53064;SDS011;38948;48.376;-4.312;2022-12-16T16:50:55;1.83;;;0.95;;
53064;SDS011;38948;48.376;-4.312;2022-12-16T16:56:25;2.60;;;1.02;;
53064;SDS011;38948;48.376;-4.312;2022-12-16T16:59:12;2.00;;;0.98;;
53064;SDS011;38948;48.376;-4.312;2022-12-16T17:01:56;2.83;;;0.90;;
53064;SDS011;38948;48.376;-4.312;2022-12-16T17:04:40;2.63;;;1.35;;
53064;SDS011;38948;48.376;-4.312;2022-12-16T17:07:24;2.20;;;1.15;;
53064;SDS011;38948;48.376;-4.312;2022-12-16T17:10:08;3.22;;;1.42;;
53064;SDS011;38948;48.376;-4.312;2022-12-16T17:12:53;3.08;;;1.27;;
53064;SDS011;38948;48.376;-4.312;2022-12-16T17:15:37;3.05;;;1.33;;
53064;SDS011;38948;48.376;-4.312;2022-12-16T17:18:22;2.20;;;1.20;;
53064;SDS011;38948;48.376;-4.312;2022-12-16T17:21:06;1.83;;;1.10;;
53064;SDS011;38948;48.376;-4.312;2022-12-16T17:23:51;3.67;;;1.55;;
53064;SDS011;38948;48.376;-4.312;2022-12-16T17:26:39;4.20;;;1.60;;
53064;SDS011;38948;48.376;-4.312;2022-12-16T17:29:25;3.40;;;1.17;;
53064;SDS011;38948;48.376;-4.312;2022-12-16T17:32:09;2.00;;;1.30;;
53064;SDS011;38948;48.376;-4.312;2022-12-16T17:34:53;5.40;;;2.03;;
53064;SDS011;38948;48.376;-4.312;2022-12-16T17:37:38;4.43;;;2.25;;
53064;SDS011;38948;48.376;-4.312;2022-12-16T17:40:22;4.75;;;2.42;;
53064;SDS011;38948;48.376;-4.312;2022-12-16T17:43:06;4.35;;;2.58;;
53064;SDS011;38948;48.376;-4.312;2022-12-16T17:46:10;4.88;;;2.50;;
53064;SDS011;38948;48.376;-4.312;2022-12-16T17:48:55;5.50;;;2.72;;
53064;SDS011;38948;48.376;-4.312;2022-12-16T17:51:41;4.68;;;2.65;;
53064;SDS011;38948;48.376;-4.312;2022-12-16T17:54:26;7.00;;;3.70;;
53064;SDS011;38948;48.376;-4.312;2022-12-16T17:57:11;7.78;;;4.03;;
53064;SDS011;38948;48.376;-4.312;2022-12-16T17:59:55;6.25;;;3.38;;
53064;SDS011;38948;48.376;-4.312;2022-12-16T18:02:40;5.82;;;3.00;;
53064;SDS011;38948;48.376;-4.312;2022-12-16T18:05:24;7.15;;;3.90;;
53064;SDS011;38948;48.376;-4.312;2022-12-16T18:08:08;7.10;;;3.30;;
53064;SDS011;38948;48.376;-4.312;2022-12-16T18:10:53;7.93;;;3.47;;
53064;SDS011;38948;48.376;-4.312;2022-12-16T18:13:39;7.60;;;3.88;;
53064;SDS011;38948;48.376;-4.312;2022-12-16T18:16:23;5.47;;;3.20;;
53064;SDS011;38948;48.376;-4.312;2022-12-16T18:19:09;6.30;;;3.10;;
53064;SDS011;38948;48.376;-4.312;2022-12-16T18:21:55;6.57;;;3.10;;